createdAt,value
2023-09-04T00:01:58.030Z,20.04
2023-09-04T00:04:24.353Z,20.13
2023-09-04T00:06:50.720Z,20.37
2023-09-04T00:09:17.023Z,20.11
2023-09-04T00:11:43.448Z,20.12
2023-09-04T00:14:09.798Z,20.01
2023-09-04T00:16:36.116Z,20.04
2023-09-04T00:19:02.482Z,19.98
2023-09-04T00:21:28.825Z,20.01
2023-09-04T00:23:55.222Z,19.93
2023-09-04T00:26:21.503Z,19.97
2023-09-04T00:28:47.983Z,20.04
2023-09-04T00:31:14.319Z,20.20
2023-09-04T00:33:40.650Z,20.10
2023-09-04T00:36:06.983Z,20.08
2023-09-04T00:38:33.267Z,19.91
2023-09-04T00:40:59.577Z,20.01
2023-09-04T00:43:25.923Z,20.00
2023-09-04T00:45:52.276Z,20.00
2023-09-04T00:48:18.634Z,19.98
2023-09-04T00:50:45.005Z,19.85
2023-09-04T00:53:11.313Z,19.98
2023-09-04T00:55:37.718Z,20.21
2023-09-04T00:58:04.179Z,20.17
2023-09-04T01:00:30.496Z,20.06
2023-09-04T01:02:56.882Z,19.86
2023-09-04T01:05:23.306Z,19.90
2023-09-04T01:07:49.581Z,19.95
2023-09-04T01:10:15.953Z,19.95
2023-09-04T01:12:42.416Z,19.98
2023-09-04T01:15:08.757Z,19.93
2023-09-04T01:17:35.220Z,19.93
2023-09-04T01:20:01.639Z,20.16
2023-09-04T01:22:27.980Z,20.12
2023-09-04T01:24:54.295Z,20.01
2023-09-04T01:27:20.942Z,19.87
2023-09-04T01:29:47.256Z,19.92
2023-09-04T01:32:14.547Z,20.00
2023-09-04T01:34:40.917Z,20.02
2023-09-04T01:37:07.245Z,19.97
2023-09-04T01:39:33.600Z,20.01
2023-09-04T01:42:00.110Z,19.95
2023-09-04T01:44:26.446Z,20.14
2023-09-04T01:46:52.782Z,20.17
2023-09-04T01:49:19.195Z,19.98
2023-09-04T01:51:45.496Z,20.03
2023-09-04T01:54:11.837Z,19.96
2023-09-04T01:56:38.184Z,19.96
2023-09-04T01:59:04.572Z,19.99
2023-09-04T02:01:30.953Z,19.99
2023-09-04T02:03:57.541Z,19.93
2023-09-04T02:06:23.882Z,19.95
2023-09-04T02:08:50.206Z,20.05
2023-09-04T02:11:17.641Z,20.19
2023-09-04T02:13:43.953Z,20.04
2023-09-04T02:16:10.346Z,19.96
2023-09-04T02:18:36.759Z,20.00
2023-09-04T02:21:03.089Z,20.00
2023-09-04T02:23:29.383Z,20.08
2023-09-04T02:25:55.951Z,20.00
2023-09-04T02:28:22.544Z,20.00
2023-09-04T02:30:49.191Z,19.84
2023-09-04T02:33:15.640Z,20.04
2023-09-04T02:35:42.010Z,20.23
2023-09-04T02:38:08.313Z,20.04
2023-09-04T02:40:34.713Z,20.06
2023-09-04T02:43:01.055Z,19.94
2023-09-04T02:45:28.858Z,19.94
2023-09-04T02:47:55.648Z,19.94
2023-09-04T02:50:22.041Z,20.04
2023-09-04T02:52:48.375Z,20.01
2023-09-04T02:55:14.792Z,19.93
2023-09-04T02:57:41.087Z,20.03
2023-09-04T03:00:07.431Z,20.18
2023-09-04T03:02:34.235Z,20.07
2023-09-04T03:05:00.657Z,19.96
2023-09-04T03:07:26.978Z,19.93
2023-09-04T03:09:53.468Z,19.85
2023-09-04T03:12:19.812Z,19.90
2023-09-04T03:14:46.114Z,19.95
2023-09-04T03:17:12.437Z,19.87
2023-09-04T03:19:38.793Z,19.83
2023-09-04T03:22:05.102Z,19.89
2023-09-04T03:24:31.496Z,20.13
2023-09-04T03:26:57.834Z,20.08
2023-09-04T03:29:24.134Z,19.96
2023-09-04T03:31:51.132Z,19.84
2023-09-04T03:34:17.597Z,19.88
2023-09-04T03:36:43.928Z,19.96
2023-09-04T03:39:10.324Z,19.95
2023-09-04T03:41:36.664Z,19.89
2023-09-04T03:44:02.987Z,19.65
2023-09-04T03:46:29.435Z,19.85
2023-09-04T03:48:55.872Z,20.10
2023-09-04T03:51:22.194Z,20.04
2023-09-04T03:53:48.642Z,19.86
2023-09-04T03:56:15.004Z,19.81
2023-09-04T03:58:41.321Z,19.91
2023-09-04T04:01:07.739Z,19.89
2023-09-04T04:03:34.246Z,19.81
2023-09-04T04:06:00.818Z,19.78
2023-09-04T04:08:27.161Z,19.82
2023-09-04T04:10:53.474Z,19.86
2023-09-04T04:13:39.764Z,20.12
2023-09-04T04:16:26.130Z,19.99
2023-09-04T04:18:52.526Z,19.85
2023-09-04T04:21:18.853Z,19.96
2023-09-04T04:23:47.053Z,19.96
2023-09-04T04:26:13.811Z,19.84
2023-09-04T04:28:40.142Z,19.85
2023-09-04T04:31:06.413Z,19.83
2023-09-04T04:33:32.773Z,19.77
2023-09-04T04:35:59.119Z,19.91
2023-09-04T04:38:25.989Z,20.11
2023-09-04T04:40:52.689Z,19.94
2023-09-04T04:43:19.062Z,19.91
2023-09-04T04:45:45.391Z,19.84
2023-09-04T04:48:11.791Z,19.96
2023-09-04T04:50:38.169Z,20.01
2023-09-04T04:53:04.466Z,19.95
2023-09-04T04:55:30.787Z,19.98
2023-09-04T04:57:57.805Z,19.87
2023-09-04T05:00:24.096Z,19.95
2023-09-04T05:02:50.574Z,20.14
2023-09-04T05:05:16.898Z,20.08
2023-09-04T05:07:43.216Z,19.95
2023-09-04T05:10:09.613Z,19.96
2023-09-04T05:12:35.966Z,19.98
2023-09-04T05:15:02.254Z,19.97
2023-09-04T05:17:28.592Z,20.00
2023-09-04T05:19:54.916Z,19.94
2023-09-04T05:22:21.198Z,19.83
2023-09-04T05:24:48.014Z,19.89
2023-09-04T05:27:14.349Z,20.14
2023-09-04T05:29:40.658Z,19.97
2023-09-04T05:32:07.009Z,19.90
2023-09-04T05:34:38.156Z,19.88
2023-09-04T05:37:04.460Z,20.03
2023-09-04T05:39:30.771Z,20.00
2023-09-04T05:41:57.150Z,19.99
2023-09-04T05:44:23.471Z,19.94
2023-09-04T05:46:50.120Z,19.89
2023-09-04T05:49:17.684Z,19.93
2023-09-04T05:51:43.969Z,20.15
2023-09-04T05:54:10.344Z,20.05
2023-09-04T05:56:36.714Z,19.92
2023-09-04T05:59:03.047Z,19.84
2023-09-04T06:01:29.399Z,19.91
2023-09-04T06:03:55.889Z,19.82
2023-09-04T06:06:22.252Z,19.93
2023-09-04T06:08:48.741Z,19.91
2023-09-04T06:11:15.133Z,19.85
2023-09-04T06:13:41.538Z,19.86
2023-09-04T06:16:08.103Z,20.05
2023-09-04T06:18:34.469Z,20.06
2023-09-04T06:21:00.859Z,19.96
2023-09-04T06:23:27.240Z,19.81
2023-09-04T06:25:53.553Z,19.85
2023-09-04T06:28:19.963Z,19.92
2023-09-04T06:30:46.485Z,20.10
2023-09-04T06:33:13.114Z,19.94
2023-09-04T06:35:39.454Z,19.93
2023-09-04T06:38:05.840Z,19.98
2023-09-04T06:40:32.184Z,20.10
2023-09-04T06:42:58.511Z,20.23
2023-09-04T06:45:25.052Z,20.06
2023-09-04T06:47:51.464Z,20.00
2023-09-04T06:50:17.818Z,19.91
2023-09-04T06:52:44.182Z,19.99
2023-09-04T06:55:10.520Z,19.98
2023-09-04T06:57:36.818Z,19.98
2023-09-04T07:00:03.207Z,20.01
2023-09-04T07:02:29.585Z,19.88
2023-09-04T07:04:55.962Z,20.08
2023-09-04T07:07:22.381Z,20.22
2023-09-04T07:09:48.815Z,20.03
2023-09-04T07:12:15.114Z,20.09
2023-09-04T07:14:41.642Z,19.95
2023-09-04T07:17:09.400Z,19.99
2023-09-04T07:19:36.576Z,20.04
2023-09-04T07:22:02.955Z,19.98
2023-09-04T07:24:29.458Z,19.87
2023-09-04T07:26:55.815Z,19.80
2023-09-04T07:29:22.339Z,20.06
2023-09-04T07:31:48.780Z,20.17
2023-09-04T07:34:15.188Z,20.11
2023-09-04T07:36:41.605Z,20.01
2023-09-04T07:39:07.943Z,19.91
2023-09-04T07:41:34.295Z,19.95
2023-09-04T07:44:00.790Z,19.94
2023-09-04T07:46:27.104Z,19.99
2023-09-04T07:48:53.614Z,20.01
2023-09-04T07:51:33.068Z,20.01
2023-09-04T07:54:01.521Z,20.05
2023-09-04T07:56:28.640Z,20.22
2023-09-04T07:58:55.147Z,20.18
2023-09-04T08:01:21.557Z,20.05
2023-09-04T08:03:48.007Z,19.94
2023-09-04T08:06:14.413Z,20.04
2023-09-04T08:08:40.768Z,20.04
2023-09-04T08:11:07.165Z,20.05
2023-09-04T08:13:33.492Z,20.02
2023-09-04T08:15:59.850Z,19.98
2023-09-04T08:18:26.226Z,20.09
2023-09-04T08:20:52.639Z,20.50
2023-09-04T08:23:19.123Z,20.44
2023-09-04T08:25:45.454Z,20.36
2023-09-04T08:28:11.807Z,20.22
2023-09-04T08:30:38.223Z,20.27
2023-09-04T08:33:06.022Z,20.33
2023-09-04T08:35:32.420Z,20.37
2023-09-04T08:37:59.026Z,20.42
2023-09-04T08:40:25.472Z,20.41
2023-09-04T08:42:51.847Z,20.49
2023-09-04T08:45:18.315Z,20.51
2023-09-04T08:47:45.026Z,20.54
2023-09-04T08:50:11.424Z,20.52
2023-09-04T08:52:37.923Z,20.58
2023-09-04T08:55:04.324Z,20.63
2023-09-04T08:57:30.695Z,20.64
2023-09-04T08:59:57.074Z,20.67
2023-09-04T09:02:23.599Z,20.68
2023-09-04T09:04:49.960Z,20.68
2023-09-04T09:07:16.414Z,20.63
2023-09-04T09:09:42.771Z,20.76
2023-09-04T09:12:09.135Z,20.66
2023-09-04T09:14:35.501Z,20.73
2023-09-04T09:17:01.887Z,20.68
2023-09-04T09:19:28.208Z,20.72
2023-09-04T09:21:54.545Z,20.73
2023-09-04T09:24:21.220Z,20.86
2023-09-04T09:26:47.700Z,20.89
2023-09-04T09:29:14.158Z,20.95
2023-09-04T09:31:40.695Z,20.92
2023-09-04T09:34:07.123Z,20.93
2023-09-04T09:36:33.548Z,20.96
2023-09-04T09:39:00.051Z,21.05
2023-09-04T09:41:26.425Z,21.07
2023-09-04T09:43:52.778Z,21.01
2023-09-04T09:46:19.261Z,21.04
2023-09-04T09:48:45.641Z,21.07
2023-09-04T09:51:11.982Z,21.08
2023-09-04T09:53:38.388Z,21.17
2023-09-04T09:56:04.827Z,21.11
2023-09-04T09:58:31.201Z,21.07
2023-09-04T10:00:57.717Z,21.11
2023-09-04T10:03:24.069Z,21.03
2023-09-04T10:05:50.412Z,21.04
2023-09-04T10:08:16.944Z,21.02
2023-09-04T10:10:43.289Z,21.00
2023-09-04T10:13:09.633Z,20.98
2023-09-04T10:15:36.072Z,21.03
2023-09-04T10:18:02.451Z,21.01
2023-09-04T10:20:28.805Z,21.03
2023-09-04T10:22:55.158Z,21.00
2023-09-04T10:25:21.494Z,21.08
2023-09-04T10:27:47.916Z,21.07
2023-09-04T10:30:16.682Z,21.01
2023-09-04T10:32:43.031Z,20.99
2023-09-04T10:35:09.394Z,21.00
2023-09-04T10:37:35.750Z,21.08
2023-09-04T10:40:03.243Z,21.12
2023-09-04T10:42:29.789Z,21.04
2023-09-04T10:44:56.118Z,21.02
2023-09-04T10:47:22.444Z,21.03
2023-09-04T10:49:49.873Z,21.06
2023-09-04T10:52:16.228Z,21.11
2023-09-04T10:54:42.567Z,21.09
2023-09-04T10:57:08.981Z,21.13
2023-09-04T10:59:37.956Z,21.14
2023-09-04T11:02:04.457Z,21.18
2023-09-04T11:04:30.826Z,21.17
2023-09-04T11:06:57.246Z,21.20
2023-09-04T11:09:23.613Z,21.23
2023-09-04T11:11:50.158Z,21.25
2023-09-04T11:14:16.566Z,21.25
2023-09-04T11:16:42.996Z,21.29
2023-09-04T11:21:37.693Z,21.37
2023-09-04T11:24:04.145Z,21.33
2023-09-04T11:26:30.571Z,21.39
2023-09-04T11:28:57.131Z,21.38
2023-09-04T11:31:23.615Z,21.31
2023-09-04T11:33:50.339Z,21.35
2023-09-04T11:36:19.160Z,21.33
2023-09-04T11:38:45.478Z,21.34
2023-09-04T11:41:11.877Z,21.34
2023-09-04T11:43:39.543Z,21.38
2023-09-04T11:46:06.047Z,21.35
2023-09-04T11:48:32.428Z,21.41
2023-09-04T11:50:58.833Z,21.33
2023-09-04T11:53:25.722Z,21.37
2023-09-04T11:55:52.710Z,21.41
2023-09-04T11:58:19.123Z,21.41
2023-09-04T12:00:45.489Z,21.41
2023-09-04T12:03:12.159Z,21.39
2023-09-04T12:59:21.343Z,21.53
2023-09-04T13:01:47.875Z,21.50
2023-09-04T13:04:14.295Z,21.61
2023-09-04T13:06:41.515Z,21.53
2023-09-04T13:09:07.881Z,21.54
2023-09-04T13:11:34.261Z,21.46
2023-09-04T13:14:03.081Z,21.43
2023-09-04T13:16:29.494Z,21.42
2023-09-04T13:18:55.871Z,21.45
2023-09-04T13:21:22.440Z,21.46
2023-09-04T13:23:48.829Z,21.40
2023-09-04T13:26:15.278Z,21.43
2023-09-04T13:28:41.700Z,21.47
2023-09-04T13:31:09.610Z,21.43
2023-09-04T13:33:36.101Z,21.40
2023-09-04T13:36:03.636Z,21.44
2023-09-04T13:38:30.131Z,21.44
2023-09-04T13:40:56.424Z,21.44
2023-09-04T13:43:23.268Z,21.41
2023-09-04T13:45:49.886Z,21.34
2023-09-04T13:48:16.267Z,21.39
2023-09-04T13:50:42.769Z,21.40
2023-09-04T13:53:09.125Z,21.34
2023-09-04T13:55:35.493Z,21.38
2023-09-04T13:58:02.008Z,21.43
2023-09-04T14:00:28.372Z,21.40
2023-09-04T14:02:54.922Z,21.39
2023-09-04T14:05:23.804Z,21.44
2023-09-04T14:07:52.605Z,21.43
2023-09-04T14:10:19.080Z,21.42
2023-09-04T14:12:45.503Z,21.45
2023-09-04T14:15:11.954Z,21.47
2023-09-04T14:17:38.398Z,21.43
2023-09-04T14:20:06.058Z,21.42
2023-09-04T14:22:32.441Z,21.47
2023-09-04T14:24:58.792Z,21.38
2023-09-04T14:27:25.188Z,21.41
2023-09-04T14:29:51.761Z,21.44
2023-09-04T14:32:18.089Z,21.44
2023-09-04T14:34:44.537Z,21.38
2023-09-04T14:39:40.147Z,21.44
2023-09-04T14:42:06.630Z,21.44
2023-09-04T14:44:32.992Z,21.45
2023-09-04T14:46:59.363Z,21.50
2023-09-04T14:49:25.727Z,21.45
2023-09-04T14:51:52.093Z,21.39
2023-09-04T14:54:19.503Z,21.51
2023-09-04T14:56:45.889Z,21.46
2023-09-04T14:59:12.240Z,21.40
2023-09-04T15:01:38.578Z,21.49
2023-09-04T15:04:05.452Z,21.43
2023-09-04T15:06:32.069Z,21.30
2023-09-04T15:08:58.489Z,21.25
2023-09-04T15:11:26.224Z,21.32
2023-09-04T15:13:55.019Z,21.36
2023-09-04T15:16:21.341Z,21.37
2023-09-04T15:18:48.749Z,21.41
2023-09-04T15:21:15.071Z,21.44
2023-09-04T15:23:41.433Z,21.45
2023-09-04T15:26:07.941Z,21.40
2023-09-04T15:28:34.269Z,21.46
2023-09-04T15:31:00.664Z,21.44
2023-09-04T15:33:27.422Z,21.46
2023-09-04T15:35:54.070Z,21.46
2023-09-04T15:38:20.536Z,21.43
2023-09-04T15:40:47.437Z,21.41
2023-09-04T15:43:13.756Z,21.38
2023-09-04T15:45:40.094Z,21.38
2023-09-04T15:48:06.585Z,21.43
2023-09-04T15:50:33.137Z,21.41
2023-09-04T15:52:59.413Z,21.45
2023-09-04T15:55:25.902Z,21.47
2023-09-04T15:57:52.298Z,21.46
2023-09-04T16:00:18.591Z,21.54
2023-09-04T16:02:44.977Z,21.48
2023-09-04T16:05:11.453Z,21.49
2023-09-04T16:07:37.757Z,21.46
2023-09-04T16:10:04.295Z,21.53
2023-09-04T16:12:30.619Z,21.52
2023-09-04T16:14:56.947Z,21.50
2023-09-04T16:17:23.278Z,21.55
2023-09-04T16:19:49.607Z,21.46
2023-09-04T16:22:15.904Z,21.40
2023-09-04T16:24:42.284Z,21.38
2023-09-04T16:27:08.607Z,21.43
2023-09-04T16:29:34.932Z,21.45
2023-09-04T16:32:01.282Z,21.36
2023-09-04T16:34:27.639Z,21.48
2023-09-04T16:36:53.898Z,21.52
2023-09-04T16:39:20.216Z,21.45
2023-09-04T16:41:46.636Z,21.37
2023-09-04T16:44:12.970Z,21.40
2023-09-04T16:46:39.325Z,21.39
2023-09-04T16:49:05.865Z,21.43
2023-09-04T16:51:39.373Z,21.46
2023-09-04T16:54:12.953Z,21.31
2023-09-04T16:56:39.257Z,21.36
2023-09-04T16:59:07.207Z,21.37
2023-09-04T17:01:34.237Z,21.31
2023-09-04T17:04:00.643Z,21.34
2023-09-04T17:06:26.938Z,21.28
2023-09-04T17:08:53.316Z,21.24
2023-09-04T17:11:19.616Z,21.29
2023-09-04T17:13:45.983Z,21.32
2023-09-04T17:16:12.358Z,21.43
2023-09-04T17:18:38.670Z,21.46
2023-09-04T17:21:04.971Z,21.42
2023-09-04T17:23:31.366Z,21.36
2023-09-04T17:25:57.740Z,21.27
2023-09-04T17:28:24.462Z,21.15
2023-09-04T17:30:51.335Z,21.21
2023-09-04T17:33:17.652Z,21.23
2023-09-04T17:35:44.032Z,21.16
2023-09-04T17:38:10.434Z,21.09
2023-09-04T17:40:36.719Z,21.26
2023-09-04T17:43:03.060Z,21.15
2023-09-04T17:45:29.528Z,21.22
2023-09-04T17:47:55.995Z,21.13
2023-09-04T17:50:22.404Z,21.16
2023-09-04T17:52:48.743Z,21.15
2023-09-04T17:55:15.063Z,21.20
2023-09-04T17:57:41.358Z,21.21
2023-09-04T18:00:07.764Z,21.27
2023-09-04T18:02:34.166Z,21.26
2023-09-04T18:05:00.566Z,21.26
2023-09-04T18:07:26.906Z,21.26
2023-09-04T18:09:53.212Z,21.23
2023-09-04T18:12:19.603Z,21.21
2023-09-04T18:14:46.138Z,21.23
2023-09-04T18:17:12.617Z,21.22
2023-09-04T18:19:38.886Z,21.30
2023-09-04T18:22:06.409Z,21.33
2023-09-04T18:24:32.926Z,21.29
2023-09-04T18:26:59.226Z,21.26
2023-09-04T18:29:25.604Z,21.28
2023-09-04T18:31:51.934Z,21.21
2023-09-04T18:34:18.227Z,21.25
2023-09-04T18:36:44.595Z,21.23
2023-09-04T18:39:10.932Z,21.24
2023-09-04T18:41:37.225Z,21.24
2023-09-04T18:44:03.598Z,21.18
2023-09-04T18:46:29.980Z,21.24
2023-09-04T18:48:56.443Z,21.30
2023-09-04T18:51:22.811Z,21.58
2023-09-04T18:53:49.109Z,21.76
2023-09-04T18:56:15.402Z,21.39
2023-09-04T18:58:41.763Z,21.28
2023-09-04T19:01:08.108Z,21.24
2023-09-04T19:03:34.449Z,21.25
2023-09-04T19:06:01.062Z,21.17
2023-09-04T19:08:27.563Z,21.25
2023-09-04T19:10:54.194Z,21.32
2023-09-04T19:13:20.607Z,21.26
2023-09-04T19:15:46.983Z,21.30
2023-09-04T19:18:13.288Z,21.21
2023-09-04T19:20:39.893Z,21.66
2023-09-04T19:23:06.205Z,21.77
2023-09-04T19:25:32.469Z,21.32
2023-09-04T19:27:58.990Z,21.17
2023-09-04T19:30:25.319Z,21.22
2023-09-04T19:32:51.693Z,21.10
2023-09-04T19:35:18.204Z,21.26
2023-09-04T19:37:44.530Z,21.33
2023-09-04T19:40:10.828Z,21.23
2023-09-04T19:42:37.207Z,21.32
2023-09-04T19:45:03.552Z,21.28
2023-09-04T19:47:29.923Z,21.61
2023-09-04T19:49:56.502Z,21.80
2023-09-04T19:52:22.990Z,21.34
2023-09-04T19:54:49.291Z,21.30
2023-09-04T19:57:15.675Z,21.11
2023-09-04T19:59:41.955Z,21.23
2023-09-04T20:02:09.669Z,21.19
2023-09-04T20:04:36.276Z,21.32
2023-09-04T20:07:02.611Z,21.39
2023-09-04T20:09:29.231Z,21.41
2023-09-04T20:11:55.580Z,21.32
2023-09-04T20:14:21.868Z,21.59
2023-09-04T20:16:48.157Z,21.88
2023-09-04T20:19:14.672Z,21.48
2023-09-04T20:21:40.979Z,21.25
2023-09-04T20:24:07.356Z,21.24
2023-09-04T20:26:43.604Z,21.18
2023-09-04T20:29:15.637Z,21.28
2023-09-04T20:31:41.991Z,21.25
2023-09-04T20:34:08.321Z,21.34
2023-09-04T20:36:34.626Z,21.35
2023-09-04T20:39:01.007Z,21.28
2023-09-04T20:41:27.288Z,21.42
2023-09-04T20:43:53.599Z,21.76
2023-09-04T20:46:20.124Z,21.74
2023-09-04T20:48:46.434Z,21.28
2023-09-04T20:51:12.809Z,21.01
2023-09-04T20:53:39.376Z,21.18
2023-09-04T20:56:05.773Z,21.05
2023-09-04T20:58:32.038Z,21.20
2023-09-04T21:00:58.603Z,21.29
2023-09-04T21:03:25.027Z,21.30
2023-09-04T21:05:51.494Z,21.36
2023-09-04T21:08:17.844Z,21.34
2023-09-04T21:10:44.182Z,21.68
2023-09-04T21:13:10.488Z,21.85
2023-09-04T21:15:36.874Z,21.56
2023-09-04T21:18:03.300Z,21.22
2023-09-04T21:20:29.621Z,21.27
2023-09-04T21:22:55.993Z,21.24
2023-09-04T21:25:22.289Z,21.24
2023-09-04T21:27:48.651Z,21.35
2023-09-04T21:30:14.951Z,21.30
2023-09-04T21:32:41.250Z,21.28
2023-09-04T21:35:07.590Z,21.37
2023-09-04T21:37:33.952Z,21.76
2023-09-04T21:40:00.279Z,21.83
2023-09-04T21:42:26.598Z,21.44
2023-09-04T21:44:54.327Z,21.28
2023-09-04T21:47:20.636Z,21.24
2023-09-04T21:49:46.973Z,21.13
2023-09-04T21:52:13.308Z,21.32
2023-09-04T21:54:39.636Z,21.25
2023-09-04T21:57:05.932Z,21.25
2023-09-04T21:59:32.533Z,21.20
2023-09-04T22:01:58.895Z,21.46
2023-09-04T22:04:25.190Z,21.80
2023-09-04T22:06:51.903Z,21.65
2023-09-04T22:09:18.203Z,21.24
2023-09-04T22:11:44.497Z,21.13
2023-09-04T22:14:10.839Z,21.09
2023-09-04T22:16:40.285Z,21.11
2023-09-04T22:19:09.409Z,21.13
2023-09-04T22:21:35.822Z,21.08
2023-09-04T22:24:02.120Z,21.14
2023-09-04T22:26:28.406Z,21.18
2023-09-04T22:28:54.764Z,21.49
2023-09-04T22:31:21.272Z,21.81
2023-09-04T22:33:47.613Z,21.43
2023-09-04T22:36:13.973Z,21.12
2023-09-04T22:38:40.306Z,21.03
2023-09-04T22:41:06.604Z,20.93
2023-09-04T22:43:32.920Z,20.91
2023-09-04T22:45:59.212Z,21.07
2023-09-04T22:48:25.556Z,21.07
2023-09-04T22:50:52.062Z,21.11
2023-09-04T22:53:18.409Z,21.14
2023-09-04T22:55:44.739Z,21.55
2023-09-04T22:58:11.254Z,21.69
2023-09-04T23:00:37.600Z,21.22
2023-09-04T23:03:04.094Z,21.04
2023-09-04T23:05:30.517Z,21.01
2023-09-04T23:07:56.826Z,21.16
2023-09-04T23:10:23.188Z,21.01
2023-09-04T23:12:49.592Z,21.17
2023-09-04T23:15:15.925Z,21.15
2023-09-04T23:17:42.265Z,21.03
2023-09-04T23:20:08.759Z,21.53
2023-09-04T23:22:35.053Z,21.63
2023-09-04T23:25:01.337Z,21.25
2023-09-04T23:27:27.989Z,21.11
2023-09-04T23:29:54.297Z,21.00
2023-09-04T23:32:20.614Z,21.10
2023-09-04T23:34:47.076Z,20.99
2023-09-04T23:37:13.394Z,21.11
2023-09-04T23:39:39.733Z,21.08
2023-09-04T23:42:06.193Z,21.06
2023-09-04T23:44:32.494Z,21.45
2023-09-04T23:46:58.759Z,21.77
2023-09-04T23:49:25.262Z,21.40
2023-09-04T23:51:51.571Z,21.13
2023-09-04T23:54:17.883Z,21.21
2023-09-04T23:56:44.251Z,21.05
2023-09-04T23:59:10.577Z,20.98
